createdAt,value
2019-04-11T08:10:41.558Z,100716.77
2019-04-11T08:15:46.266Z,100695.66
2019-04-11T08:20:50.538Z,100710.88
2019-04-11T08:25:55.803Z,100707.90
2019-04-11T08:30:59.820Z,100711.71
2019-04-11T08:36:05.115Z,100720.75
2019-04-11T08:41:09.463Z,100708.69
2019-04-11T08:46:13.574Z,100719.61
2019-04-11T08:51:19.177Z,100724.18
2019-04-11T08:56:25.034Z,100721.44
2019-04-11T09:01:33.869Z,100727.86
2019-04-11T09:06:38.979Z,100724.94
2019-04-11T09:11:44.657Z,100740.03
2019-04-11T09:16:49.950Z,100727.55
2019-04-11T09:21:54.295Z,100739.00
2019-04-11T09:26:58.878Z,100733.53
2019-04-11T09:32:04.296Z,100733.49
2019-04-11T09:37:09.460Z,100737.33
2019-04-11T09:42:14.639Z,100735.67
2019-04-11T09:47:22.213Z,100731.70
2019-04-11T09:52:26.957Z,100731.38
2019-04-11T09:57:32.407Z,100740.35
2019-04-11T10:02:37.035Z,100491.11
2019-04-11T10:07:41.969Z,100747.14
2019-04-11T10:12:46.522Z,100750.48
2019-04-11T10:17:50.618Z,100748.27
2019-04-11T10:22:56.346Z,100752.80
2019-04-11T10:28:01.219Z,100764.44
2019-04-11T10:33:06.616Z,100761.42
2019-04-11T10:38:11.955Z,100769.33
2019-04-11T10:43:16.295Z,100769.01
2019-04-11T10:48:33.524Z,100774.64
2019-04-11T10:58:57.868Z,100774.12
2019-04-11T11:04:03.282Z,100774.12
2019-04-11T11:09:08.011Z,100785.74
2019-04-11T11:14:12.370Z,100774.91
2019-04-11T11:19:33.719Z,100775.58
2019-04-11T11:24:22.330Z,100781.16
2019-04-11T11:29:28.926Z,100777.84
2019-04-11T11:34:33.128Z,100777.34
2019-04-11T11:39:37.551Z,100788.58
2019-04-11T11:44:41.669Z,100786.01
2019-04-11T11:49:55.545Z,100788.16
2019-04-11T11:54:55.634Z,100791.22
2019-04-11T12:00:00.793Z,100793.69
2019-04-11T12:05:11.286Z,100799.81
2019-04-11T12:10:13.909Z,100790.77
2019-04-11T12:15:20.953Z,100789.91
2019-04-11T12:20:24.937Z,100796.09
2019-04-11T12:25:29.347Z,100795.42
2019-04-11T12:30:35.580Z,100800.41
2019-04-11T12:35:40.122Z,100797.03
2019-04-11T12:40:44.258Z,100790.97
2019-04-11T12:45:51.270Z,100790.97
2019-04-11T12:50:57.599Z,100794.82
2019-04-11T12:56:02.021Z,100797.56
2019-04-11T13:01:06.069Z,100799.98
2019-04-11T13:06:10.207Z,100799.98
2019-04-11T13:11:14.429Z,100804.95
2019-04-11T13:16:18.581Z,100805.91
2019-04-11T13:21:23.189Z,100796.63
2019-04-11T13:26:27.549Z,100804.13
2019-04-11T13:31:31.749Z,100800.10
2019-04-11T13:36:35.880Z,100802.05
2019-04-11T13:41:39.963Z,100789.58
2019-04-11T13:46:44.248Z,100790.81
2019-04-11T13:51:48.847Z,100790.28
2019-04-11T13:56:52.961Z,100796.78
2019-04-11T14:01:57.252Z,100784.70
2019-04-11T14:07:02.966Z,100786.00
2019-04-11T14:12:10.203Z,100792.38
2019-04-11T14:17:14.602Z,100777.06
2019-04-11T14:22:18.761Z,100773.48
2019-04-11T14:27:22.827Z,100768.92
2019-04-11T14:32:27.030Z,100775.18
2019-04-11T14:37:38.038Z,100769.74
2019-04-11T14:42:37.129Z,100762.86
2019-04-11T14:47:41.148Z,100761.98
2019-04-11T14:52:46.706Z,100766.13
2019-04-11T14:57:53.546Z,100761.34
2019-04-11T15:02:56.959Z,100759.77
2019-04-11T15:08:01.359Z,100764.44
2019-04-11T15:13:05.331Z,100754.08
2019-04-11T15:18:09.223Z,100769.64
2019-04-11T15:23:13.297Z,100770.66
2019-04-11T15:28:17.302Z,100767.97
2019-04-11T15:33:21.670Z,100759.47
2019-04-11T15:38:25.572Z,100762.17
2019-04-11T15:43:29.482Z,100766.02
2019-04-11T15:48:33.476Z,100771.77
2019-04-11T15:53:37.537Z,100771.77
2019-04-11T15:58:42.581Z,100758.91
2019-04-11T16:03:47.177Z,100758.91
2019-04-11T16:08:51.111Z,100751.13
2019-04-11T16:13:55.041Z,100759.16
2019-04-11T16:18:59.209Z,100753.42
2019-04-11T16:24:03.228Z,100747.95
2019-04-11T16:29:09.200Z,100754.55
2019-04-11T16:34:15.903Z,100755.42
2019-04-11T16:39:19.915Z,100756.37
2019-04-11T16:44:25.526Z,100759.27
2019-04-11T16:49:29.759Z,100764.11
2019-04-11T16:54:33.899Z,100759.95
2019-04-11T16:59:37.955Z,100760.08
2019-04-11T17:04:42.110Z,100762.19
2019-04-11T17:09:46.221Z,100763.76
2019-04-11T17:14:50.255Z,100762.59
2019-04-11T17:19:54.270Z,100759.22
2019-04-11T17:24:58.347Z,100758.34
2019-04-11T17:30:02.442Z,100758.46
2019-04-11T17:35:06.791Z,100749.17
2019-04-11T17:40:11.427Z,100750.84
2019-04-11T17:45:15.499Z,100756.21
2019-04-11T17:50:19.544Z,100754.55
2019-04-11T17:55:24.510Z,100749.72
2019-04-11T18:00:29.970Z,100755.60
2019-04-11T18:05:34.410Z,100756.02
2019-04-11T18:10:38.485Z,100758.13
2019-04-11T18:15:45.606Z,100760.92
2019-04-11T18:20:49.706Z,100765.45
2019-04-11T18:25:53.667Z,100772.53
2019-04-11T18:30:57.822Z,100776.02
2019-04-11T18:36:02.862Z,100776.20
2019-04-11T18:41:07.079Z,100781.20
2019-04-11T18:46:11.119Z,100775.23
2019-04-11T18:51:18.080Z,100777.59
2019-04-11T18:56:22.163Z,100772.52
2019-04-11T19:01:26.295Z,100775.20
2019-04-11T19:06:31.324Z,100779.50
2019-04-11T19:11:35.468Z,100781.64
2019-04-11T19:16:39.427Z,100784.41
2019-04-11T19:21:43.532Z,100787.33
2019-04-11T19:26:47.526Z,100782.73
2019-04-11T19:31:51.626Z,100789.70
2019-04-11T19:36:55.807Z,100796.80
2019-04-11T19:41:59.867Z,100797.91
2019-04-11T19:47:04.047Z,100798.97
2019-04-11T19:52:08.323Z,100810.27
2019-04-11T19:57:12.450Z,100806.59
2019-04-11T20:02:16.508Z,100813.43
2019-04-11T20:07:20.549Z,100820.56
2019-04-11T20:12:27.728Z,100822.68
2019-04-11T20:17:43.763Z,100827.58
2019-04-11T20:22:42.548Z,100833.66
2019-04-11T20:27:48.084Z,100836.30
2019-04-11T20:32:52.467Z,100836.36
2019-04-11T20:37:56.488Z,100820.41
2019-04-11T20:43:00.547Z,100822.31
2019-04-11T20:48:04.747Z,100813.61
2019-04-11T20:53:12.841Z,100817.88
2019-04-11T20:58:26.540Z,100820.93
2019-04-11T21:03:20.462Z,100821.95
2019-04-11T21:08:24.506Z,100831.13
2019-04-11T21:13:28.487Z,100835.41
2019-04-11T21:18:32.480Z,100851.39
2019-04-11T21:23:36.666Z,100852.14
2019-04-11T21:28:40.768Z,100857.00
2019-04-11T21:33:44.787Z,100845.75
2019-04-11T21:38:48.867Z,100846.91
2019-04-11T21:43:52.882Z,100842.89
2019-04-11T21:48:56.987Z,100826.30
2019-04-11T21:54:01.206Z,100834.58
2019-04-11T21:59:05.426Z,100833.83
2019-04-11T22:04:09.808Z,100829.56
2019-04-11T22:09:16.836Z,100832.66
2019-04-11T22:14:20.813Z,100835.72
2019-04-11T22:19:24.676Z,100830.86
2019-04-11T22:24:29.808Z,100820.17
2019-04-11T22:29:35.626Z,100821.58
2019-04-11T22:34:39.587Z,100819.69
2019-04-11T22:39:43.466Z,100819.07
2019-04-11T22:44:47.487Z,100816.77
2019-04-11T22:49:51.441Z,100824.91
2019-04-11T22:54:55.626Z,100814.46
2019-04-11T22:59:59.627Z,100809.53
2019-04-11T23:05:03.722Z,100809.45
2019-04-11T23:10:07.911Z,100810.56
2019-04-11T23:15:14.888Z,100806.27
2019-04-11T23:20:17.685Z,100806.75
2019-04-11T23:25:21.590Z,100803.95
2019-04-11T23:30:25.543Z,100803.52
2019-04-11T23:35:29.541Z,100804.27
2019-04-11T23:40:33.486Z,100803.56
2019-04-11T23:45:37.430Z,100792.91
2019-04-11T23:50:41.436Z,100798.95
2019-04-11T23:55:45.379Z,100800.63
